NUG weather

Nuugaatsiaq Heliport
Nuugaatsiaq, Greenland

Public forecast

Using degrees Celsius for public forecast. Weather courtesy of forecast.io.

METAR (pilot weather report)

Report is more than 6 hours old.

Closest report is Qaarsut Airport, 49.3 nm (91.3 km) SSE. Retrieved 2014/07/24 10:50 UTC (5 years ago):

BGUQ 241050Z 12006KT 9999 FEW010 BKN038 10/10 Q1015

TAF (pilot weather forecast)

Closest forecast is Clyde River Airport, 304.8 nm (564.5 km) W. Retrieved 2019/04/26 01:39 UTC (2 hours ago):

TAF CYCY 260038Z 2601/2613 13018KT 6SM -SN SCT020 OVC070 TEMPO 2601/2603 2SM -SN BKN020 FM260300 14018KT 6SM -SN BKN030 TEMPO 2603/2609 2SM -SN BLSN OVC015 PROB30 2603/2609 1SM -SHSN BLSN VV006 FM260900 16012KT P6SM BKN030 TEMPO 2609/2613 21/2SM -SN BKN020 RMK FCST BASED ON AUTO OBS. NXT FCST BY 260700Z